createdAt,value
2016-12-12T00:00:51.439Z,7.03
2016-12-12T00:01:51.192Z,6.93
2016-12-12T00:02:51.348Z,6.97
2016-12-12T00:03:51.458Z,7.05
2016-12-12T00:04:51.310Z,6.99
2016-12-12T00:05:52.077Z,6.87
2016-12-12T00:06:51.242Z,6.93
2016-12-12T00:07:51.392Z,6.88
2016-12-12T00:08:51.190Z,6.84
2016-12-12T00:09:51.950Z,6.88
2016-12-12T00:10:53.408Z,6.77
2016-12-12T00:11:51.652Z,6.69
2016-12-12T00:12:51.408Z,6.82
2016-12-12T00:13:51.040Z,6.67
2016-12-12T00:14:51.097Z,6.78
2016-12-12T00:15:51.745Z,6.81
2016-12-12T00:16:52.103Z,6.84
2016-12-12T00:17:52.468Z,6.85
2016-12-12T00:18:51.605Z,6.78
2016-12-12T00:19:51.101Z,6.82
2016-12-12T00:20:51.419Z,6.99
2016-12-12T00:21:51.435Z,6.97
2016-12-12T00:22:51.474Z,6.99
2016-12-12T00:23:51.884Z,7.05
2016-12-12T00:24:51.634Z,7.06
2016-12-12T00:25:51.505Z,7.03
2016-12-12T00:26:52.413Z,7.07
2016-12-12T00:27:51.514Z,7.02
2016-12-12T00:28:51.801Z,7.23
2016-12-12T00:29:51.850Z,7.17
2016-12-12T00:30:51.197Z,7.11
2016-12-12T00:31:51.539Z,7.2
2016-12-12T00:32:52.154Z,7.03
2016-12-12T00:33:51.972Z,7.15
2016-12-12T00:34:51.636Z,7.13
2016-12-12T00:35:51.984Z,7.15
2016-12-12T00:36:51.819Z,7.15
2016-12-12T00:37:52.055Z,7.14
2016-12-12T00:38:53.760Z,7.02
2016-12-12T00:39:52.136Z,7.06
2016-12-12T00:40:52.120Z,7.07
2016-12-12T00:41:52.358Z,7.07
2016-12-12T00:42:51.738Z,7.05
2016-12-12T00:43:51.879Z,7.06
2016-12-12T00:44:52.114Z,7.06
2016-12-12T00:45:51.609Z,7.03
2016-12-12T00:46:52.057Z,7.05
2016-12-12T00:47:51.942Z,7.02
2016-12-12T00:48:52.524Z,7.1
2016-12-12T00:49:51.666Z,7.11
2016-12-12T00:50:51.617Z,7.17
2016-12-12T00:51:51.411Z,7.15
2016-12-12T00:52:51.963Z,7.15
2016-12-12T00:53:52.409Z,7.14
2016-12-12T00:54:52.342Z,7.17
2016-12-12T00:55:52.419Z,7.15
2016-12-12T00:56:51.784Z,7.14
2016-12-12T00:57:52.764Z,7.2
2016-12-12T00:58:52.495Z,7.2
2016-12-12T00:59:51.928Z,7.15
2016-12-12T01:00:52.341Z,7.21
2016-12-12T01:01:51.881Z,7.18
2016-12-12T01:02:52.231Z,7.2
2016-12-12T01:03:52.490Z,7.2
2016-12-12T01:04:52.325Z,7.25
2016-12-12T01:05:52.941Z,7.18
2016-12-12T01:06:53.207Z,7.21
2016-12-12T01:07:52.267Z,7.17
2016-12-12T01:08:52.237Z,7.13
2016-12-12T01:09:52.398Z,7.13
2016-12-12T01:10:51.743Z,7.03
2016-12-12T01:11:52.291Z,7.06
2016-12-12T01:12:52.472Z,7.14
2016-12-12T01:13:52.307Z,7.05
2016-12-12T01:14:52.176Z,7
2016-12-12T01:15:52.773Z,7.13
2016-12-12T01:16:52.150Z,7.2
2016-12-12T01:17:52.555Z,7.15
2016-12-12T01:18:52.349Z,7.23
2016-12-12T01:19:52.437Z,7.24
2016-12-12T01:20:52.501Z,7.24
2016-12-12T01:21:51.935Z,7.2
2016-12-12T01:22:52.912Z,7.31
2016-12-12T01:23:52.556Z,7.36
2016-12-12T01:24:52.093Z,7.32
2016-12-12T01:25:52.595Z,7.29
2016-12-12T01:26:52.823Z,7.32
2016-12-12T01:27:53.080Z,7.31
2016-12-12T01:28:52.532Z,7.32
2016-12-12T01:29:53.105Z,7.33
2016-12-12T01:30:52.507Z,7.33
2016-12-12T01:31:53.283Z,7.29
2016-12-12T01:32:52.576Z,7.4
2016-12-12T01:33:52.128Z,7.33
2016-12-12T01:34:52.272Z,7.25
2016-12-12T01:35:52.846Z,7.33
2016-12-12T01:36:52.282Z,7.31
2016-12-12T01:37:52.485Z,7.33
2016-12-12T01:38:52.235Z,7.32
2016-12-12T01:39:53.159Z,7.33
2016-12-12T01:40:52.391Z,7.33
2016-12-12T01:41:52.449Z,7.28
2016-12-12T01:42:52.388Z,7.35
2016-12-12T01:43:52.908Z,7.32
2016-12-12T01:44:53.115Z,7.28
2016-12-12T01:45:52.585Z,7.29
2016-12-12T01:46:52.297Z,7.15
2016-12-12T01:47:53.750Z,7.32
2016-12-12T01:48:52.791Z,7.33
2016-12-12T01:49:52.812Z,7.24
2016-12-12T01:50:52.574Z,7.17
2016-12-12T01:51:52.954Z,7.25
2016-12-12T01:52:53.196Z,7.25
2016-12-12T01:53:52.492Z,7.31
2016-12-12T01:54:53.361Z,7.33
2016-12-12T01:55:52.778Z,7.25
2016-12-12T01:56:53.644Z,7.39
2016-12-12T01:57:52.812Z,7.33
2016-12-12T01:58:53.231Z,7.28
2016-12-12T01:59:52.723Z,7.28
2016-12-12T02:00:52.748Z,7.35
2016-12-12T02:01:53.176Z,7.24
2016-12-12T02:02:53.578Z,7.28
2016-12-12T02:03:53.462Z,7.35
2016-12-12T02:04:52.643Z,7.33
2016-12-12T02:05:52.932Z,7.31
2016-12-12T02:06:53.632Z,7.33
2016-12-12T02:07:53.405Z,7.31
2016-12-12T02:08:53.235Z,7.25
2016-12-12T02:09:53.577Z,7.33
2016-12-12T02:10:53.022Z,7.42
2016-12-12T02:11:53.070Z,7.4
2016-12-12T02:12:53.278Z,7.38
2016-12-12T02:13:53.777Z,7.36
2016-12-12T02:14:52.561Z,7.36
2016-12-12T02:15:53.879Z,7.36
2016-12-12T02:16:53.291Z,7.35
2016-12-12T02:17:53.285Z,7.29
2016-12-12T02:18:53.307Z,7.36
2016-12-12T02:19:53.345Z,7.32
2016-12-12T02:20:53.795Z,7.28
2016-12-12T02:21:53.831Z,7.25
2016-12-12T02:22:53.423Z,7.29
2016-12-12T02:23:53.473Z,7.25
2016-12-12T02:24:53.966Z,7.28
2016-12-12T02:25:53.813Z,7.31
2016-12-12T02:26:53.088Z,7.42
2016-12-12T02:27:53.896Z,7.31
2016-12-12T02:28:53.581Z,7.33
2016-12-12T02:29:53.496Z,7.33
2016-12-12T02:30:53.143Z,7.31
2016-12-12T02:31:53.468Z,7.32
2016-12-12T02:32:53.541Z,7.33
2016-12-12T02:33:54.120Z,7.21
2016-12-12T02:34:52.966Z,7.36
2016-12-12T02:35:53.681Z,7.29
2016-12-12T02:36:53.853Z,7.25
2016-12-12T02:37:53.600Z,7.29
2016-12-12T02:38:54.478Z,7.32
2016-12-12T02:39:54.053Z,7.25
2016-12-12T02:40:54.165Z,7.28
2016-12-12T02:41:53.603Z,7.29
2016-12-12T02:42:54.749Z,7.4
2016-12-12T02:43:53.554Z,7.31
2016-12-12T02:44:53.768Z,7.31
2016-12-12T02:45:53.682Z,7.29
2016-12-12T02:46:53.753Z,7.24
2016-12-12T02:47:53.409Z,7.33
2016-12-12T02:48:53.905Z,7.33
2016-12-12T02:49:53.486Z,7.31
2016-12-12T02:50:53.336Z,7.23
2016-12-12T02:51:53.774Z,7.31
2016-12-12T02:52:53.548Z,7.38
2016-12-12T02:53:54.159Z,7.38
2016-12-12T02:54:53.741Z,7.32
2016-12-12T02:55:54.094Z,7.35
2016-12-12T02:56:53.640Z,7.36
2016-12-12T02:57:54.094Z,7.33
2016-12-12T02:58:54.266Z,7.35
2016-12-12T02:59:54.328Z,7.38
2016-12-12T03:00:53.732Z,7.32
2016-12-12T03:01:54.546Z,7.32
2016-12-12T03:02:53.859Z,7.39
2016-12-12T03:03:53.625Z,7.29
2016-12-12T03:04:54.625Z,7.33
2016-12-12T03:05:53.827Z,7.29
2016-12-12T03:06:54.911Z,7.32
2016-12-12T03:07:53.883Z,7.38
2016-12-12T03:08:54.347Z,7.35
2016-12-12T03:09:54.102Z,7.35
2016-12-12T03:10:53.636Z,7.32
2016-12-12T03:11:54.699Z,7.35
2016-12-12T03:12:54.362Z,7.31
2016-12-12T03:13:54.341Z,7.33
2016-12-12T03:14:53.700Z,7.32
2016-12-12T03:15:54.679Z,7.36
2016-12-12T03:16:54.001Z,7.35
2016-12-12T03:17:54.923Z,7.39
2016-12-12T03:18:54.369Z,7.36
2016-12-12T03:19:54.017Z,7.39
2016-12-12T03:20:54.653Z,7.36
2016-12-12T03:21:54.433Z,7.35
2016-12-12T03:22:54.260Z,7.35
2016-12-12T03:23:53.993Z,7.35
2016-12-12T03:24:54.143Z,7.29
2016-12-12T03:25:54.656Z,7.36
2016-12-12T03:26:53.806Z,7.36
2016-12-12T03:27:54.553Z,7.35
2016-12-12T03:28:54.112Z,7.33
2016-12-12T03:29:54.153Z,7.36
2016-12-12T03:30:55.178Z,7.29
2016-12-12T03:31:54.498Z,7.33
2016-12-12T03:32:54.512Z,7.31
2016-12-12T03:33:54.075Z,7.31
2016-12-12T03:34:54.304Z,7.32
2016-12-12T03:35:54.308Z,7.31
2016-12-12T03:36:54.205Z,7.24
2016-12-12T03:37:54.403Z,7.28
2016-12-12T03:38:54.930Z,7.33
2016-12-12T03:39:54.473Z,7.31
2016-12-12T03:40:54.622Z,7.28
2016-12-12T03:41:54.448Z,7.25
2016-12-12T03:42:54.006Z,7.29
2016-12-12T03:43:55.040Z,7.29
2016-12-12T03:44:54.574Z,7.25
2016-12-12T03:45:54.893Z,7.28
2016-12-12T03:46:54.563Z,7.25
2016-12-12T03:47:54.542Z,7.32
2016-12-12T03:48:55.974Z,7.35
2016-12-12T03:49:55.381Z,7.33
2016-12-12T03:50:55.175Z,7.42
2016-12-12T03:51:54.927Z,7.38
2016-12-12T03:52:54.811Z,7.35
2016-12-12T03:53:54.699Z,7.35
2016-12-12T03:54:54.744Z,7.38
2016-12-12T03:55:54.465Z,7.35
2016-12-12T03:56:54.859Z,7.32
2016-12-12T03:57:55.025Z,7.38
2016-12-12T03:58:54.390Z,7.42
2016-12-12T03:59:54.723Z,7.35
2016-12-12T04:00:54.750Z,7.35
2016-12-12T04:01:54.565Z,7.28
2016-12-12T04:02:54.624Z,7.36
2016-12-12T04:03:54.620Z,7.35
2016-12-12T04:04:54.956Z,7.33
2016-12-12T04:05:54.483Z,7.29
2016-12-12T04:06:54.896Z,7.32
2016-12-12T04:07:55.207Z,7.42
2016-12-12T04:08:55.216Z,7.32
2016-12-12T04:09:55.083Z,7.38
2016-12-12T04:10:54.686Z,7.36
2016-12-12T04:11:55.222Z,7.4
2016-12-12T04:12:55.216Z,7.35
2016-12-12T04:13:54.733Z,7.38
2016-12-12T04:14:54.763Z,7.33
2016-12-12T04:15:54.779Z,7.35
2016-12-12T04:16:55.427Z,7.31
2016-12-12T04:17:55.598Z,7.35
2016-12-12T04:18:54.855Z,7.25
2016-12-12T04:19:55.391Z,7.32
2016-12-12T04:20:55.726Z,7.36
2016-12-12T04:21:55.232Z,7.28
2016-12-12T04:22:55.271Z,7.31
2016-12-12T04:23:54.810Z,7.32
2016-12-12T04:24:55.364Z,7.32
2016-12-12T04:25:55.028Z,7.18
2016-12-12T04:26:54.916Z,7.31
2016-12-12T04:27:55.159Z,7.23
2016-12-12T04:28:55.850Z,7.29
2016-12-12T04:29:55.173Z,7.29
2016-12-12T04:30:55.657Z,7.32
2016-12-12T04:31:56.130Z,7.33
2016-12-12T04:32:55.584Z,7.32
2016-12-12T04:33:55.219Z,7.17
2016-12-12T04:34:55.239Z,7.28
2016-12-12T04:35:56.137Z,7.2
2016-12-12T04:36:54.852Z,7.29
2016-12-12T04:37:55.227Z,7.29
2016-12-12T04:38:54.944Z,7.33
2016-12-12T04:39:55.030Z,7.33
2016-12-12T04:40:56.474Z,7.24
2016-12-12T04:41:55.626Z,7.29
2016-12-12T04:42:55.712Z,7.29
2016-12-12T04:43:55.554Z,7.28
2016-12-12T04:44:55.521Z,7.33
2016-12-12T04:45:55.774Z,7.28
2016-12-12T04:46:55.227Z,7.24
2016-12-12T04:47:55.432Z,7.35
2016-12-12T04:48:55.621Z,7.28
2016-12-12T04:49:55.377Z,7.35
2016-12-12T04:50:55.312Z,7.32
2016-12-12T04:51:56.284Z,7.28
2016-12-12T04:52:55.539Z,7.32
2016-12-12T04:53:56.161Z,7.33
2016-12-12T04:54:55.404Z,7.31
2016-12-12T04:55:55.392Z,7.32
2016-12-12T04:56:56.359Z,7.35
2016-12-12T04:57:55.624Z,7.33
2016-12-12T04:58:55.377Z,7.36
2016-12-12T04:59:56.012Z,7.35
2016-12-12T05:00:55.508Z,7.33
2016-12-12T05:01:56.332Z,7.38
2016-12-12T05:02:55.776Z,7.39
2016-12-12T05:03:55.589Z,7.33
2016-12-12T05:04:56.456Z,7.33
2016-12-12T05:05:56.329Z,7.33
2016-12-12T05:06:55.632Z,7.28
2016-12-12T05:07:56.286Z,7.28
2016-12-12T05:08:57.151Z,7.28
2016-12-12T05:09:57.294Z,7.32
2016-12-12T05:10:58.482Z,7.35
2016-12-12T05:11:57.457Z,7.28
2016-12-12T05:12:57.198Z,7.32
2016-12-12T05:13:56.874Z,7.28
2016-12-12T05:14:58.175Z,7.36
2016-12-12T05:15:57.622Z,7.29
2016-12-12T05:16:57.093Z,7.36
2016-12-12T05:17:56.613Z,7.29
2016-12-12T05:18:57.488Z,7.33
2016-12-12T05:19:56.600Z,7.35
2016-12-12T05:20:57.262Z,7.36
2016-12-12T05:21:56.831Z,7.33
2016-12-12T05:22:57.322Z,7.33
2016-12-12T05:23:57.652Z,7.32
2016-12-12T05:24:58.030Z,7.38
2016-12-12T05:25:57.672Z,7.32
2016-12-12T05:26:57.314Z,7.4
2016-12-12T05:27:57.123Z,7.39
2016-12-12T05:28:57.229Z,7.33
2016-12-12T05:29:57.263Z,7.32
2016-12-12T05:30:57.533Z,7.38
2016-12-12T05:31:57.467Z,7.28
2016-12-12T05:32:57.343Z,7.36
2016-12-12T05:33:56.761Z,7.28
2016-12-12T05:34:58.546Z,7.23
2016-12-12T05:35:56.987Z,7.15
2016-12-12T05:36:57.123Z,7.1
2016-12-12T05:37:57.275Z,7.02
2016-12-12T05:38:56.967Z,6.93
2016-12-12T05:39:58.268Z,6.93
2016-12-12T05:40:57.070Z,6.88
2016-12-12T05:41:57.402Z,6.87
2016-12-12T05:42:57.136Z,6.92
2016-12-12T05:43:57.320Z,6.97
2016-12-12T05:44:58.096Z,6.95
2016-12-12T05:45:56.397Z,6.92
2016-12-12T05:46:57.584Z,6.92
2016-12-12T05:47:57.756Z,6.96
2016-12-12T05:48:57.080Z,6.92
2016-12-12T05:49:56.654Z,6.95
2016-12-12T05:50:56.997Z,6.93
2016-12-12T05:51:56.922Z,6.85
2016-12-12T05:52:56.955Z,6.89
2016-12-12T05:53:57.824Z,6.93
2016-12-12T05:54:57.773Z,7
2016-12-12T05:55:56.733Z,6.96
2016-12-12T05:56:58.134Z,7
2016-12-12T05:57:57.623Z,7.06
2016-12-12T05:58:58.461Z,7.07
2016-12-12T05:59:57.992Z,7
2016-12-12T06:00:56.803Z,7.03
2016-12-12T06:01:57.649Z,7.15
2016-12-12T06:02:57.270Z,7.18
2016-12-12T06:03:56.952Z,7.17
2016-12-12T06:04:58.724Z,7.2
2016-12-12T06:05:57.042Z,7.23
2016-12-12T06:06:57.327Z,7.28
2016-12-12T06:07:57.044Z,7.2
2016-12-12T06:08:56.765Z,7.21
2016-12-12T06:09:57.692Z,7.31
2016-12-12T06:10:57.942Z,7.25
2016-12-12T06:11:57.864Z,7.31
2016-12-12T06:12:56.948Z,7.33
2016-12-12T06:13:57.467Z,7.28
2016-12-12T06:14:58.366Z,7.38
2016-12-12T06:15:56.876Z,7.33
2016-12-12T06:16:58.903Z,7.33
2016-12-12T06:17:56.446Z,7.36
2016-12-12T06:18:57.992Z,7.33
2016-12-12T06:19:57.778Z,7.32
2016-12-12T06:20:57.924Z,7.35
2016-12-12T06:21:58.584Z,7.35
2016-12-12T06:22:58.125Z,7.43
2016-12-12T06:23:58.692Z,7.35
2016-12-12T06:24:58.867Z,7.38
2016-12-12T06:25:58.043Z,7.35
2016-12-12T06:26:58.158Z,7.33
2016-12-12T06:27:59.654Z,7.29
2016-12-12T06:28:57.449Z,7.36
2016-12-12T06:29:58.087Z,7.36
2016-12-12T06:30:57.789Z,7.33
2016-12-12T06:31:58.420Z,7.33
2016-12-12T06:32:58.124Z,7.35
2016-12-12T06:33:58.680Z,7.35
2016-12-12T06:34:58.754Z,7.32
2016-12-12T06:35:58.211Z,7.32
2016-12-12T06:36:58.306Z,7.42
2016-12-12T06:37:58.250Z,7.42
2016-12-12T06:38:57.000Z,7.42
2016-12-12T06:39:58.629Z,7.29
2016-12-12T06:40:57.469Z,7.39
2016-12-12T06:41:57.904Z,7.4
2016-12-12T06:42:58.697Z,7.38
2016-12-12T06:43:57.808Z,7.36
2016-12-12T06:44:57.767Z,7.32
2016-12-12T06:45:57.303Z,7.29
2016-12-12T06:46:57.581Z,7.39
2016-12-12T06:47:57.309Z,7.32
2016-12-12T06:48:58.554Z,7.32
2016-12-12T06:50:14.251Z,7.29
2016-12-12T06:50:57.623Z,7.35
2016-12-12T06:51:57.253Z,7.35
2016-12-12T06:52:57.324Z,7.38
2016-12-12T06:53:57.383Z,7.25
2016-12-12T06:54:57.773Z,7.32
2016-12-12T06:55:57.383Z,7.35
2016-12-12T06:56:57.537Z,7.35
2016-12-12T06:57:57.259Z,7.36
2016-12-12T06:58:57.497Z,7.32
2016-12-12T06:59:58.645Z,7.29
2016-12-12T07:00:57.725Z,7.33
2016-12-12T07:01:57.369Z,7.36
2016-12-12T07:02:57.516Z,7.31
2016-12-12T07:03:57.683Z,7.32
2016-12-12T07:04:58.053Z,7.39
2016-12-12T07:05:57.503Z,7.33
2016-12-12T07:06:58.359Z,7.32
2016-12-12T07:07:57.844Z,7.38
2016-12-12T07:08:57.961Z,7.28
2016-12-12T07:09:58.413Z,7.32
2016-12-12T07:10:58.576Z,7.21
2016-12-12T07:11:58.569Z,7.24
2016-12-12T07:12:57.980Z,7.28
2016-12-12T07:13:58.524Z,7.25
2016-12-12T07:14:59.160Z,7.31
2016-12-12T07:15:58.536Z,7.32
2016-12-12T07:16:58.262Z,7.25
2016-12-12T07:17:58.947Z,7.31
2016-12-12T07:18:58.350Z,7.32
2016-12-12T07:20:58.486Z,7.33
2016-12-12T07:21:57.483Z,7.36
2016-12-12T07:22:57.483Z,7.35
2016-12-12T07:23:58.082Z,7.29
2016-12-12T07:24:59.390Z,7.36
2016-12-12T07:25:58.452Z,7.31
2016-12-12T07:27:58.344Z,7.36
2016-12-12T07:28:58.340Z,7.33
2016-12-12T07:29:58.817Z,7.32
2016-12-12T07:30:59.201Z,7.28
2016-12-12T07:31:59.081Z,7.35
2016-12-12T07:32:59.727Z,7.45
2016-12-12T07:33:58.175Z,7.35
2016-12-12T07:34:59.878Z,7.25
2016-12-12T07:35:58.525Z,7.39
2016-12-12T07:36:58.556Z,7.36
2016-12-12T07:37:59.030Z,7.36
2016-12-12T07:38:58.889Z,7.28
2016-12-12T07:39:58.582Z,7.32
2016-12-12T07:40:58.807Z,7.31
2016-12-12T07:41:58.607Z,7.35
2016-12-12T07:42:58.093Z,7.35
2016-12-12T07:43:58.284Z,7.32
2016-12-12T07:44:58.182Z,7.32
2016-12-12T07:45:58.829Z,7.32
2016-12-12T07:46:58.301Z,7.31
2016-12-12T07:47:58.922Z,7.32
2016-12-12T07:48:58.752Z,7.33
2016-12-12T07:49:58.796Z,7.31
2016-12-12T07:50:59.067Z,7.32
2016-12-12T07:51:59.920Z,7.32
2016-12-12T07:53:00.093Z,7.33
2016-12-12T07:54:01.179Z,7.24
2016-12-12T07:54:59.042Z,7.33
2016-12-12T07:55:58.630Z,7.32
2016-12-12T07:56:58.724Z,7.36
2016-12-12T07:57:59.024Z,7.43
2016-12-12T07:58:58.482Z,7.35
2016-12-12T07:59:58.662Z,7.4
2016-12-12T08:00:58.215Z,7.36
2016-12-12T08:01:59.028Z,7.35
2016-12-12T08:02:58.638Z,7.35
2016-12-12T08:03:59.186Z,7.33
2016-12-12T08:04:59.033Z,7.36
2016-12-12T08:06:00.221Z,7.33
2016-12-12T08:06:59.144Z,7.36
2016-12-12T08:07:58.511Z,7.32
2016-12-12T08:08:58.580Z,7.4
2016-12-12T08:10:00.128Z,7.4
2016-12-12T08:10:59.157Z,7.47
2016-12-12T08:11:59.255Z,7.48
2016-12-12T08:12:58.905Z,7.5
2016-12-12T08:13:58.465Z,7.43
2016-12-12T08:14:58.857Z,7.48
2016-12-12T08:15:58.470Z,7.58
2016-12-12T08:16:58.771Z,7.47
2016-12-12T08:17:59.565Z,7.53
2016-12-12T08:18:59.539Z,7.56
2016-12-12T08:19:58.957Z,7.63
2016-12-12T08:20:58.370Z,7.56
2016-12-12T08:21:59.014Z,7.53
2016-12-12T08:22:59.495Z,7.51
2016-12-12T08:23:59.979Z,7.57
2016-12-12T08:24:58.857Z,7.61
2016-12-12T08:25:58.534Z,7.54
2016-12-12T08:26:59.429Z,7.6
2016-12-12T08:27:58.488Z,7.58
2016-12-12T08:28:59.194Z,7.61
2016-12-12T08:29:59.289Z,7.61
2016-12-12T08:30:59.155Z,7.61
2016-12-12T08:31:58.890Z,7.58
2016-12-12T08:32:59.735Z,7.63
2016-12-12T08:34:00.270Z,7.6
2016-12-12T08:34:59.310Z,7.63
2016-12-12T08:35:58.715Z,7.67
2016-12-12T08:36:58.891Z,7.6
2016-12-12T08:38:00.212Z,7.69
2016-12-12T08:38:58.804Z,7.75
2016-12-12T08:39:59.208Z,7.75
2016-12-12T08:40:59.874Z,7.75
2016-12-12T08:41:59.168Z,7.69
2016-12-12T08:42:59.358Z,7.79
2016-12-12T08:43:59.313Z,7.76
2016-12-12T08:44:59.597Z,7.73
2016-12-12T08:45:59.014Z,7.76
2016-12-12T08:46:59.660Z,7.76
2016-12-12T08:47:59.495Z,7.87
2016-12-12T08:48:59.477Z,7.9
2016-12-12T08:49:59.877Z,7.85
2016-12-12T08:50:58.748Z,7.83
2016-12-12T08:51:59.422Z,7.85
2016-12-12T08:52:59.039Z,8
2016-12-12T08:53:59.943Z,8.05
2016-12-12T08:54:59.439Z,8.05
2016-12-12T08:56:00.063Z,8.05
2016-12-12T08:56:59.106Z,8.09
2016-12-12T08:57:59.498Z,8.18
2016-12-12T08:58:59.841Z,8.24
2016-12-12T08:59:59.577Z,8.23
2016-12-12T09:01:00.484Z,8.24
2016-12-12T09:01:59.392Z,8.23
2016-12-12T09:02:59.105Z,8.18
2016-12-12T09:03:59.627Z,8.16
2016-12-12T09:05:00.100Z,8.15
2016-12-12T09:05:59.145Z,8.23
2016-12-12T09:07:00.007Z,8.26
2016-12-12T09:07:59.560Z,8.16
2016-12-12T09:08:59.083Z,8.13
2016-12-12T09:09:59.440Z,8.19
2016-12-12T09:10:59.300Z,8.18
2016-12-12T09:11:59.885Z,8.15
2016-12-12T09:12:59.540Z,8.23
2016-12-12T09:14:00.830Z,8.19
2016-12-12T09:14:59.380Z,8.24
2016-12-12T09:15:59.428Z,8.24
2016-12-12T09:16:59.857Z,8.23
2016-12-12T09:17:59.948Z,8.23
2016-12-12T09:19:00.275Z,8.19
2016-12-12T09:20:02.892Z,8.2
2016-12-12T09:20:59.838Z,8.24
2016-12-12T09:21:59.994Z,8.23
2016-12-12T09:22:59.752Z,8.3
2016-12-12T09:24:00.550Z,8.26
2016-12-12T09:24:59.806Z,8.2
2016-12-12T09:25:59.612Z,8.2
2016-12-12T09:26:59.716Z,8.26
2016-12-12T09:27:59.716Z,8.23
2016-12-12T09:28:59.606Z,8.26
2016-12-12T09:29:59.676Z,8.26
2016-12-12T09:30:59.707Z,8.27
2016-12-12T09:32:00.076Z,8.3
2016-12-12T09:32:59.669Z,8.33
2016-12-12T09:34:00.804Z,8.31
2016-12-12T09:34:59.685Z,8.3
2016-12-12T09:36:00.144Z,8.3
2016-12-12T09:37:00.183Z,8.28
2016-12-12T09:38:00.556Z,8.16
2016-12-12T09:38:59.994Z,8.24
2016-12-12T09:39:59.641Z,8.26
2016-12-12T09:40:59.835Z,8.27
2016-12-12T09:42:00.718Z,8.18
2016-12-12T09:43:00.211Z,8.26
2016-12-12T09:43:59.611Z,8.2
2016-12-12T09:44:59.756Z,8.28
2016-12-12T09:46:00.048Z,8.27
2016-12-12T09:47:00.252Z,8.3
2016-12-12T09:48:00.223Z,8.3
2016-12-12T09:49:00.691Z,8.31
2016-12-12T09:50:00.980Z,8.38
2016-12-12T09:51:00.475Z,8.37
2016-12-12T09:52:01.006Z,8.36
2016-12-12T09:53:01.061Z,8.33
2016-12-12T09:54:00.482Z,8.38
2016-12-12T09:55:00.630Z,8.46
2016-12-12T09:56:00.641Z,8.44
2016-12-12T09:57:00.309Z,8.48
2016-12-12T09:58:00.521Z,8.55
2016-12-12T09:59:00.404Z,8.61
2016-12-12T10:00:00.824Z,8.58
2016-12-12T10:01:00.931Z,8.55
2016-12-12T10:02:01.072Z,8.61
2016-12-12T10:03:00.467Z,8.55
2016-12-12T10:04:00.729Z,8.63
2016-12-12T10:05:01.200Z,8.63
2016-12-12T10:06:00.474Z,8.64
2016-12-12T10:07:00.712Z,8.55
2016-12-12T10:08:00.621Z,8.67
2016-12-12T10:09:01.237Z,8.66
2016-12-12T10:10:00.493Z,8.61
2016-12-12T10:11:01.281Z,8.6
2016-12-12T10:12:01.226Z,8.58
2016-12-12T10:13:00.956Z,8.53
2016-12-12T10:14:00.482Z,8.55
2016-12-12T10:15:00.690Z,8.6
2016-12-12T10:16:00.470Z,8.6
2016-12-12T10:17:00.716Z,8.63
2016-12-12T10:18:00.921Z,8.66
2016-12-12T10:19:00.595Z,8.67
2016-12-12T10:20:01.339Z,8.74
2016-12-12T10:21:00.973Z,8.79
2016-12-12T10:22:01.469Z,8.79
2016-12-12T10:23:00.706Z,8.74
2016-12-12T10:24:01.035Z,8.79
2016-12-12T10:25:00.778Z,8.85
2016-12-12T10:26:00.868Z,8.81
2016-12-12T10:27:01.049Z,8.79
2016-12-12T10:28:00.767Z,8.78
2016-12-12T10:29:01.302Z,8.74
2016-12-12T10:30:00.780Z,8.78
2016-12-12T10:31:01.191Z,8.74
2016-12-12T10:32:00.922Z,8.78
2016-12-12T10:33:01.222Z,8.7
2016-12-12T10:34:01.424Z,8.79
2016-12-12T10:35:00.565Z,8.82
2016-12-12T10:36:01.973Z,8.89
2016-12-12T10:37:01.414Z,8.88
2016-12-12T10:38:01.172Z,8.91
2016-12-12T10:39:01.299Z,9
2016-12-12T10:40:01.341Z,8.84
2016-12-12T10:41:01.441Z,8.95
2016-12-12T10:42:01.457Z,9.02
2016-12-12T10:43:00.825Z,8.97
2016-12-12T10:44:00.617Z,8.97
2016-12-12T10:45:01.900Z,8.97
2016-12-12T10:46:02.006Z,8.91
2016-12-12T10:47:01.333Z,9
2016-12-12T10:48:01.122Z,9.04
2016-12-12T10:49:01.037Z,9
2016-12-12T10:50:02.298Z,9.03
2016-12-12T10:51:00.997Z,8.97
2016-12-12T10:52:02.037Z,9.02
2016-12-12T10:53:00.998Z,8.99
2016-12-12T10:54:01.303Z,8.82
2016-12-12T10:55:01.411Z,8.89
2016-12-12T10:56:01.690Z,8.84
2016-12-12T10:57:01.198Z,8.82
2016-12-12T10:58:01.025Z,8.87
2016-12-12T10:59:01.771Z,8.97
2016-12-12T11:00:01.275Z,9.03
2016-12-12T11:01:01.305Z,8.89
2016-12-12T11:02:01.943Z,8.92
2016-12-12T11:03:02.422Z,9.02
2016-12-12T11:04:02.465Z,9.02
2016-12-12T11:05:01.827Z,9.08
2016-12-12T11:06:01.055Z,9.06
2016-12-12T11:07:01.819Z,9.1
2016-12-12T11:08:01.649Z,9.08
2016-12-12T11:09:01.529Z,9.06
2016-12-12T11:10:01.862Z,9.03
2016-12-12T11:11:02.021Z,8.99
2016-12-12T11:12:01.149Z,9.03
2016-12-12T11:13:01.161Z,8.94
2016-12-12T11:14:01.851Z,8.94
2016-12-12T11:15:01.783Z,9.04
2016-12-12T11:16:02.579Z,8.97
2016-12-12T11:17:01.676Z,8.89
2016-12-12T11:18:02.265Z,9.08
2016-12-12T11:19:02.155Z,9.14
2016-12-12T11:20:02.125Z,9.31
2016-12-12T11:21:02.614Z,9.34
2016-12-12T11:22:02.463Z,9.34
2016-12-12T11:23:01.709Z,9.44
2016-12-12T11:24:02.003Z,9.41
2016-12-12T11:25:02.494Z,9.44
2016-12-12T11:26:02.346Z,9.58
2016-12-12T11:27:01.665Z,9.72
2016-12-12T11:28:03.036Z,9.69
2016-12-12T11:29:02.033Z,9.73
2016-12-12T11:30:02.099Z,9.64
2016-12-12T11:31:02.503Z,9.76
2016-12-12T11:32:02.627Z,9.72
2016-12-12T11:33:02.504Z,9.54
2016-12-12T11:34:02.577Z,9.44
2016-12-12T11:35:01.990Z,9.41
2016-12-12T11:36:02.417Z,9.37
2016-12-12T11:37:02.698Z,9.4
2016-12-12T11:38:02.462Z,9.28
2016-12-12T11:39:02.740Z,9.32
2016-12-12T11:40:02.605Z,9.31
2016-12-12T11:41:02.104Z,9.36
2016-12-12T11:42:02.827Z,9.34
2016-12-12T11:43:02.415Z,9.31
2016-12-12T11:44:02.462Z,9.31
2016-12-12T11:45:02.507Z,9.37
2016-12-12T11:46:02.650Z,9.31
2016-12-12T11:47:01.897Z,9.41
2016-12-12T11:48:02.509Z,9.34
2016-12-12T11:49:02.609Z,9.29
2016-12-12T11:50:02.789Z,9.26
2016-12-12T11:51:02.079Z,9.32
2016-12-12T11:52:02.052Z,9.23
2016-12-12T11:53:02.231Z,9.23
2016-12-12T11:54:02.482Z,9.21
2016-12-12T11:55:01.822Z,9.21
2016-12-12T11:56:02.207Z,9.18
2016-12-12T11:57:02.380Z,9.16
2016-12-12T11:58:02.866Z,9.23
2016-12-12T11:59:03.378Z,9.22
2016-12-12T12:00:02.907Z,9.21
2016-12-12T12:01:02.465Z,9.29
2016-12-12T12:02:03.334Z,9.29
2016-12-12T12:03:02.933Z,9.31
2016-12-12T12:04:03.518Z,9.21
2016-12-12T12:05:03.055Z,9.23
2016-12-12T12:06:02.424Z,9.29
2016-12-12T12:07:02.989Z,9.31
2016-12-12T12:08:03.223Z,9.31
2016-12-12T12:09:02.457Z,9.26
2016-12-12T12:10:02.605Z,9.16
2016-12-12T12:11:02.959Z,9.18
2016-12-12T12:12:02.965Z,9.14
2016-12-12T12:13:02.373Z,9.16
2016-12-12T12:14:03.338Z,9.21
2016-12-12T12:15:05.470Z,9.13
2016-12-12T12:16:02.993Z,9.1
2016-12-12T12:17:02.876Z,9.13
2016-12-12T12:18:02.778Z,9.04
2016-12-12T12:19:03.113Z,9.08
2016-12-12T12:20:03.077Z,9.1
2016-12-12T12:21:04.227Z,9.1
2016-12-12T12:22:03.250Z,9.06
2016-12-12T12:23:02.929Z,9.06
2016-12-12T12:24:03.446Z,9.06
2016-12-12T12:25:03.314Z,9.03
2016-12-12T12:26:03.281Z,9.08
2016-12-12T12:27:03.172Z,9.1
2016-12-12T12:28:03.147Z,9.14
2016-12-12T12:29:03.245Z,9.14
2016-12-12T12:30:03.502Z,9.13
2016-12-12T12:31:03.747Z,9.06
2016-12-12T12:32:03.619Z,9.04
2016-12-12T12:33:03.482Z,9.04
2016-12-12T12:34:03.025Z,9.04
2016-12-12T12:35:03.660Z,9
2016-12-12T12:36:03.486Z,8.99
2016-12-12T12:37:03.155Z,9.08
2016-12-12T12:38:03.371Z,8.99
2016-12-12T12:39:03.552Z,9
2016-12-12T12:40:03.546Z,9.06
2016-12-12T12:41:04.835Z,9
2016-12-12T12:42:03.050Z,9.02
2016-12-12T12:43:03.108Z,8.97
2016-12-12T12:44:03.852Z,8.97
2016-12-12T12:45:02.742Z,8.97
2016-12-12T12:46:03.811Z,9.06
2016-12-12T12:47:03.645Z,8.95
2016-12-12T12:48:02.831Z,8.92
2016-12-12T12:49:02.862Z,8.88
2016-12-12T12:50:03.261Z,8.91
2016-12-12T12:51:03.766Z,8.95
2016-12-12T12:52:04.592Z,8.91
2016-12-12T12:53:05.570Z,8.92
2016-12-12T12:54:04.124Z,8.99
2016-12-12T12:55:03.814Z,8.92
2016-12-12T12:56:03.145Z,8.95
2016-12-12T12:57:03.319Z,8.99
2016-12-12T12:58:03.397Z,8.95
2016-12-12T12:59:03.741Z,9.02
2016-12-12T13:00:03.073Z,8.92
2016-12-12T13:01:03.477Z,8.82
2016-12-12T13:02:03.425Z,8.84
2016-12-12T13:03:04.683Z,8.94
2016-12-12T13:04:04.246Z,8.92
2016-12-12T13:05:02.952Z,8.94
2016-12-12T13:06:03.931Z,8.89
2016-12-12T13:07:04.653Z,8.84
2016-12-12T13:08:04.170Z,8.91
2016-12-12T13:09:04.434Z,8.87
2016-12-12T13:10:03.855Z,8.84
2016-12-12T13:11:03.818Z,8.82
2016-12-12T13:12:03.583Z,8.91
2016-12-12T13:13:04.130Z,8.87
2016-12-12T13:14:03.673Z,8.85
2016-12-12T13:15:03.828Z,8.87
2016-12-12T13:16:03.552Z,8.84
2016-12-12T13:17:04.181Z,8.84
2016-12-12T13:18:04.348Z,8.82
2016-12-12T13:19:04.435Z,8.87
2016-12-12T13:20:03.627Z,8.81
2016-12-12T13:21:04.658Z,8.85
2016-12-12T13:22:04.452Z,8.81
2016-12-12T13:23:04.551Z,8.82
2016-12-12T13:24:04.151Z,8.78